AirNav   Duncan Aviation - Near you to keep you flying
 
 649 users online  

32MI William Beaumont Hospital Heliport
Royal Oak, Michigan, USA

GOING TO ROYAL OAK?


FAA INFORMATION EFFECTIVE 21 APRIL 2022

Location

FAA Identifier: 32MI
Lat/Long: 42-30-54.2800N 083-11-39.0000W
42-30.904667N 083-11.650000W
42.5150778,-83.1941667
(estimated)
Elevation: 771 ft. / 235 m (estimated)
Variation: 06W (1990)
From city: 1 mile W of ROYAL OAK, MI
Time zone: UTC -4 (UTC -5 during Standard Time)
Zip code: 48073

Heliport Operations

Heliport use: Private use, MEDICAL USE.
Activation date: 03/1993
Control tower: no
ARTCC: CLEVELAND CENTER
FSS: LANSING FLIGHT SERVICE STATION
Attendance: CONTINUOUS
Segmented circle: no
Lights: SS-SR

Heliport Communications

WX AWOS-3 at VLL (1.8 nm NE): 119.475 (248-288-4649)
WX ASOS at DET (10 nm SE): PHONE 313-371-9696
WX ASOS at PTK (13 nm NW): 125.025 (248-886-8551)
WX ASOS at DTW (19 nm S): PHONE 734-955-5015

Nearby radio navigation aids

VOR radial/distance  VOR name  Freq  Var
SVMr073/18.8SALEM VORTAC114.3003W
DXOr029/19.7DETROIT VOR/DME113.4006W
CRLr026/30.4CARLETON VOR/DME115.7003W
FNTr144/36.4FLINT VORTAC116.9006W

 
NDB name  Hdg/Dist  Freq  Var  ID
GROSSE ILE003/24.941907WRYS .-. -.-- ...

Heliport Services

Runway Information

Helipad H1

Dimensions: 53 x 53 ft. / 16 x 16 m
Surface: concrete
Runway edge lights: PERI
Latitude: 42-30.904667N
Longitude: 083-11.650000W
Elevation: 771.0 ft.
Traffic pattern: leftleft
Obstructions: bldg
H1 116 FT BLDG 120 FT E; 130 FT CHIMNEYS 235 FT S; 33 FT LGT POLES IN VCNTY.

Heliport Ownership and Management from official FAA records

Ownership: Privately-owned
Owner: WILLIAM BEAUMONT HOSPITAL
3601 W 13 MILE RD
ROYAL OAK, MI 48072
Manager: CHRISTINE LAKING
3601 W 13 MILE RD
ROYAL OAK, MI 48072
Phone (248) 898-2691

Additional Remarks

FOR CD CTC DETROIT APCH AT 734-955-1404.

Instrument Procedures

There are no published instrument procedures at 32MI.

Some nearby airports with instrument procedures:

KVLL - Oakland/Troy Airport (2 nm NE)
KDET - Coleman A Young Municipal Airport (10 nm SE)
KPTK - Oakland County International Airport (13 nm NW)
1D2 - Canton-Plymouth-Mettetal Airport (15 nm SW)
KMTC - Selfridge Air National Guard Base (17 nm E)
57D - Ray Community Airport (19 nm NE)
Y47 - Oakland Southwest Airport (19 nm W)
D98 - Romeo State Airport (19 nm NE)
KDTW - Detroit Metro Wayne County Airport (19 nm S)
 
Loc | Ops | Rwys | IFR | FBO | Links
Com | Nav | Svcs | Stats | Notes
Area around 32MI (William Beaumont Hospital Heliport)
 
Road maps at: MapQuest Bing Google
 
Aerial photo
No photo
 
Sectional chart

 
Airport distance calculator
Flying to William Beaumont Hospital Heliport? Find the distance to fly.

From to 32MI

Sunrise and sunset
Times for 17-May-2022
 Local
(UTC-4)
 Zulu
(UTC)
Morning civil twilight05:3709:37
Sunrise06:1010:10
Sunset20:4800:48
Evening civil twilight21:2101:21

Current date and time
Zulu (UTC)  17-May-2022 05:32:39
Local (UTC-4)  17-May-2022 01:32:39
 
METAR
KVLL 
2nm NE 
170515Z AUTO 02004KT 10SM BKN110 16/03 A2985 RMK AO2 T01640025
KDET 
10nm SE 
170453Z 25004KT 10SM BKN110 17/06 A2982 RMK AO2 SLP095 T01670056 402500133
KPTK 
13nm NW 
170453Z 29004KT 10SM BKN100 14/06 A2983 RMK AO2 SLP097 T01440061 402390117
KMTC 
18nm E 
170456Z AUTO 01007KT 10SM BKN100 13/08 A2983 RMK AO2 SLP106 T01250080 402230111
CYQG 
18nm SE 
170500Z AUTO 27004KT 9SM BKN110 15/07 A2982 RMK SLP099 DENSITY ALT 900FT
KDTW 
18nm S 
170453Z 28005KT 10SM BKN110 BKN200 17/06 A2983 RMK AO2 SLP098 T01720061 PNO $
TAF
KDET 
10nm SE 
170131Z 1702/1724 28006KT P6SM SCT100 FM170600 34005KT P6SM SKC FM171800 31010KT P6SM SCT050
KPTK 
13nm NW 
170132Z 1702/1724 29006KT P6SM SCT100 FM170600 34005KT P6SM SKC FM171800 31010KT P6SM SCT050
KMTC 
18nm E 
170430Z 1704/1807 29013KT 9999 SCT080 510003 QNH2978INS BECMG 1705/1706 30010KT 9999 FEW040 QNH2984INS BECMG 1714/1715 32010G15KT 9999 SKC 510053 QNH2999INS BECMG 1805/1806 09010KT 9999 OVC140 QNH3005INS TX20/1721Z TN08/1711Z LAST NO AMDS AFT 1704 NEXT 1709
CYQG 
18nm SE 
161951Z 1619/1718 20010G20KT P6SM SCT100 TEMPO 1619/1621 VRB15G25KT 2SM TSRA BR BKN050CB FM162100 28015G25KT P6SM SCT080 TEMPO 1621/1623 P6SM -SHRA BKN080 PROB30 1621/1622 3SM TSRA BR BKN050CB FM162300 28015G25KT P6SM FEW050 BECMG 1623/1701 29010KT BECMG 1702/1704 36005KT FM171300 31012KT P6SM FEW040 RMK FCST BASED ON AUTO OBS. NXT FCST BY 170000Z
KDTW 
18nm S 
170301Z 1703/1806 28006KT P6SM SCT100 FM170600 34005KT P6SM SKC FM171800 31010KT P6SM SCT050
NOTAMs
Click for the latest NOTAMs
NOTAMs are issued by the DoD/FAA and will open in a separate window not controlled by AirNav.

 

 
 

Would you like to see your business listed on this page?

 If your business provides an interesting product or service to pilots, flight crews, aircraft, or users of the William Beaumont Hospital Heliport, you should consider listing it here.  To start the listing process, click on the button below
 
Add a business
 

Other Pages about William Beaumont Hospital Heliport

Update a link
 
Copyright © AirNav, LLC. All rights reserved. Privacy Policy  Contact